Time;durP1;ratioP1;P1;durP2;ratioP2;P2;SDS_P1;SDS_P2;PMS_P1;PMS_P2;Temp;Humidity;BMP_temperature;BMP_pressure;BME280_temperature;BME280_humidity;BME280_pressure;Samples;Min_cycle;Max_cycle;Signal;HPM_P1;HPM_P2
2021/12/20 00:00:49;;;;;;;1.60;1.27;;;6.80;98.20;;;;;;4996951;28;20610;-78
2021/12/20 00:03:16;;;;;;;1.63;1.30;;;6.80;98.20;;;;;;4998846;28;20850;-76
2021/12/20 00:05:43;;;;;;;1.63;1.30;;;6.80;98.20;;;;;;5000538;28;20587;-78
2021/12/20 00:08:12;;;;;;;1.60;1.20;;;6.80;98.20;;;;;;5000939;28;21008;-78
2021/12/20 00:10:39;;;;;;;1.60;1.30;;;6.80;98.20;;;;;;4999877;28;20862;-76
2021/12/20 00:13:06;;;;;;;1.60;1.30;;;6.80;98.20;;;;;;5000911;28;20498;-77
2021/12/20 00:15:33;;;;;;;1.60;1.20;;;6.80;98.20;;;;;;5001642;28;20539;-77
2021/12/20 00:18:00;;;;;;;1.70;1.50;;;6.80;98.20;;;;;;4999853;28;20518;-76
2021/12/20 00:20:28;;;;;;;1.60;1.20;;;6.80;98.20;;;;;;4999847;28;20854;-76
2021/12/20 00:22:55;;;;;;;1.60;1.30;;;6.80;98.20;;;;;;5002364;28;20468;-76
2021/12/20 00:25:23;;;;;;;1.60;1.20;;;6.80;98.20;;;;;;5000279;28;20895;-77
2021/12/20 00:27:51;;;;;;;1.60;1.30;;;6.80;98.20;;;;;;5000778;28;20542;-77
2021/12/20 00:30:18;;;;;;;1.60;1.30;;;6.80;98.20;;;;;;5000585;28;20483;-77
2021/12/20 00:32:45;;;;;;;1.60;1.30;;;6.80;98.20;;;;;;5001247;28;20566;-79
2021/12/20 00:35:13;;;;;;;1.60;1.30;;;6.80;98.20;;;;;;4999746;28;20546;-77
2021/12/20 00:40:26;;;;;;;1.60;1.20;;;6.80;98.20;;;;;;5000829;28;20574;-77
2021/12/20 00:42:56;;;;;;;1.60;1.30;;;6.80;98.20;;;;;;4997947;28;20991;-76
2021/12/20 00:45:25;;;;;;;1.60;1.30;;;6.80;98.20;;;;;;4998859;28;20526;-77
2021/12/20 00:47:52;;;;;;;1.63;1.30;;;6.80;98.20;;;;;;4993105;28;20504;-78
2021/12/20 00:50:21;;;;;;;1.63;1.40;;;6.80;98.20;;;;;;4999508;28;20488;-77
2021/12/20 00:52:48;;;;;;;1.60;1.30;;;6.80;98.20;;;;;;4998319;28;20488;-76
2021/12/20 00:55:18;;;;;;;1.60;1.30;;;6.80;98.20;;;;;;4996705;28;20472;-75
2021/12/20 00:57:47;;;;;;;1.60;1.30;;;6.70;98.20;;;;;;5000306;28;20468;-79
2021/12/20 01:00:17;;;;;;;1.60;1.30;;;6.80;98.20;;;;;;5001313;28;20579;-77
2021/12/20 01:02:45;;;;;;;1.60;1.30;;;6.70;98.20;;;;;;4998620;28;20475;-75
2021/12/20 01:05:13;;;;;;;1.60;1.30;;;6.70;98.20;;;;;;4998554;28;21073;-76
2021/12/20 01:07:39;;;;;;;1.60;1.30;;;6.70;98.20;;;;;;5000393;28;20483;-76
2021/12/20 01:10:09;;;;;;;1.60;1.20;;;6.70;98.20;;;;;;5001132;28;21020;-76
2021/12/20 01:12:44;;;;;;;1.60;1.30;;;6.70;98.20;;;;;;4999995;28;20495;-76
2021/12/20 01:15:15;;;;;;;1.60;1.20;;;6.70;98.20;;;;;;4997980;28;20586;-76
2021/12/20 01:17:42;;;;;;;1.60;1.20;;;6.70;98.20;;;;;;4999060;28;20850;-76
2021/12/20 01:20:11;;;;;;;1.60;1.30;;;6.70;98.20;;;;;;5000762;28;20491;-78
2021/12/20 01:22:38;;;;;;;1.60;1.30;;;6.70;98.20;;;;;;4999862;28;20460;-76
2021/12/20 01:25:06;;;;;;;1.70;1.40;;;6.70;98.20;;;;;;5003518;28;20909;-77
2021/12/20 01:27:33;;;;;;;1.67;1.30;;;6.70;98.20;;;;;;5004513;28;20565;-78
2021/12/20 01:29:59;;;;;;;1.60;1.20;;;6.70;98.20;;;;;;5008572;28;20483;-76
2021/12/20 01:32:28;;;;;;;1.60;1.30;;;6.70;98.20;;;;;;5005464;28;20488;-76
2021/12/20 01:34:55;;;;;;;1.63;1.30;;;6.70;98.20;;;;;;5008163;28;20475;-77
2021/12/20 01:37:22;;;;;;;1.60;1.30;;;6.60;98.20;;;;;;5008796;28;20470;-77
2021/12/20 01:39:49;;;;;;;1.70;1.40;;;6.70;98.20;;;;;;5009927;28;21055;-76
2021/12/20 01:42:18;;;;;;;1.60;1.30;;;6.60;98.20;;;;;;5003527;28;20464;-77
2021/12/20 01:44:45;;;;;;;1.60;1.20;;;6.60;98.20;;;;;;5007380;28;20475;-76
2021/12/20 01:47:14;;;;;;;1.63;1.20;;;6.70;98.20;;;;;;5012237;28;20856;-77
2021/12/20 01:49:55;;;;;;;1.63;1.30;;;6.70;98.20;;;;;;5011634;28;20865;-78
2021/12/20 01:52:25;;;;;;;1.60;1.20;;;6.70;98.20;;;;;;5010826;28;20491;-77
2021/12/20 01:54:52;;;;;;;1.70;1.30;;;6.70;98.20;;;;;;5010839;28;20475;-76
2021/12/20 01:57:20;;;;;;;1.63;1.20;;;6.70;98.20;;;;;;5011416;28;20468;-76
2021/12/20 01:59:47;;;;;;;1.70;1.40;;;6.70;98.20;;;;;;5012189;28;20492;-77
2021/12/20 02:02:14;;;;;;;1.60;1.27;;;6.60;98.20;;;;;;5011545;28;21007;-77
2021/12/20 02:04:47;;;;;;;1.70;1.30;;;6.60;98.20;;;;;;5010147;28;20490;-79
2021/12/20 02:07:32;;;;;;;1.60;1.30;;;6.60;98.20;;;;;;5010834;28;20474;-77
2021/12/20 02:09:59;;;;;;;1.63;1.30;;;6.60;98.20;;;;;;5009812;28;21084;-77
2021/12/20 02:12:26;;;;;;;1.63;1.40;;;6.60;98.20;;;;;;5009502;28;20475;-78
2021/12/20 02:14:53;;;;;;;1.63;1.33;;;6.60;98.20;;;;;;5010356;28;20472;-75
2021/12/20 02:17:20;;;;;;;1.63;1.33;;;6.60;98.20;;;;;;4997335;28;20468;-77
2021/12/20 02:19:48;;;;;;;1.60;1.30;;;6.60;98.20;;;;;;5009757;28;20574;-76
2021/12/20 02:22:19;;;;;;;1.60;1.30;;;6.60;98.20;;;;;;5009511;28;20471;-77
2021/12/20 02:24:45;;;;;;;1.60;1.30;;;6.60;98.20;;;;;;5011061;28;20478;-77
2021/12/20 02:27:12;;;;;;;1.60;1.30;;;6.60;98.20;;;;;;5009836;28;20699;-78
2021/12/20 02:29:46;;;;;;;1.60;1.30;;;6.60;98.20;;;;;;5011685;28;20519;-76
2021/12/20 02:37:44;;;;;;;1.60;1.27;;;6.60;98.20;;;;;;5011293;28;20816;-78
2021/12/20 02:40:11;;;;;;;1.60;1.30;;;6.60;98.20;;;;;;5011786;28;20484;-77
2021/12/20 02:42:41;;;;;;;1.63;1.30;;;6.60;98.20;;;;;;5009885;28;20944;-76
2021/12/20 02:45:12;;;;;;;1.70;1.40;;;6.60;98.20;;;;;;5008867;28;20471;-78
2021/12/20 02:47:42;;;;;;;1.60;1.30;;;6.60;98.20;;;;;;5010759;28;20459;-77
2021/12/20 02:50:10;;;;;;;1.60;1.33;;;6.50;98.20;;;;;;5001570;28;21012;-77
2021/12/20 02:52:38;;;;;;;1.60;1.30;;;6.50;98.20;;;;;;5004368;28;20527;-77
2021/12/20 02:55:08;;;;;;;1.60;1.30;;;6.50;98.20;;;;;;5003841;28;20902;-78
2021/12/20 02:57:35;;;;;;;1.70;1.40;;;6.50;98.20;;;;;;5005429;28;20928;-77
2021/12/20 03:00:04;;;;;;;1.60;1.20;;;6.50;98.20;;;;;;5010899;28;20546;-77
2021/12/20 03:02:31;;;;;;;1.60;1.20;;;6.50;98.20;;;;;;5010356;28;20483;-77
2021/12/20 03:04:58;;;;;;;1.60;1.27;;;6.50;98.20;;;;;;5009374;28;20559;-77
2021/12/20 03:07:27;;;;;;;1.70;1.30;;;6.50;98.20;;;;;;5009925;28;20559;-77
2021/12/20 03:10:00;;;;;;;1.60;1.30;;;6.50;98.20;;;;;;5016623;28;20485;-76
2021/12/20 03:12:32;;;;;;;1.70;1.30;;;6.50;98.20;;;;;;5009459;28;20488;-77
2021/12/20 03:15:05;;;;;;;1.60;1.30;;;6.50;98.20;;;;;;5009529;28;20472;-76
2021/12/20 03:17:32;;;;;;;1.60;1.30;;;6.50;98.20;;;;;;5010412;28;20472;-77
2021/12/20 03:19:59;;;;;;;1.60;1.30;;;6.50;98.20;;;;;;5010431;28;21030;-78
2021/12/20 03:22:26;;;;;;;1.60;1.30;;;6.50;98.20;;;;;;5009729;28;20527;-77
2021/12/20 03:24:53;;;;;;;2.17;1.97;;;6.50;98.20;;;;;;5008914;28;21026;-77
2021/12/20 03:27:20;;;;;;;1.63;1.30;;;6.50;98.20;;;;;;5009538;28;20471;-77
2021/12/20 03:29:48;;;;;;;1.63;1.30;;;6.50;98.20;;;;;;5005502;28;20487;-77
2021/12/20 03:32:15;;;;;;;1.63;1.30;;;6.50;98.20;;;;;;5009563;28;20472;-77
2021/12/20 03:34:42;;;;;;;1.60;1.30;;;6.50;98.20;;;;;;5008996;28;20539;-76
2021/12/20 03:37:09;;;;;;;1.60;1.30;;;6.50;98.20;;;;;;5010142;28;20731;-77
2021/12/20 03:39:36;;;;;;;1.70;1.40;;;6.50;98.20;;;;;;5010773;28;20563;-77
2021/12/20 03:42:03;;;;;;;1.60;1.30;;;6.50;98.20;;;;;;5008893;28;20471;-77
2021/12/20 03:44:33;;;;;;;1.67;1.30;;;6.50;98.20;;;;;;5009321;28;20476;-75
2021/12/20 03:47:02;;;;;;;1.67;1.30;;;6.50;98.20;;;;;;5009093;28;20530;-75
2021/12/20 03:49:29;;;;;;;1.63;1.30;;;6.50;98.20;;;;;;5008687;28;20534;-77
2021/12/20 03:51:56;;;;;;;1.67;1.30;;;6.50;98.20;;;;;;5006845;28;21032;-76
2021/12/20 03:54:23;;;;;;;1.63;1.37;;;6.50;98.20;;;;;;5007224;28;20722;-78
2021/12/20 03:56:50;;;;;;;1.60;1.30;;;6.50;98.20;;;;;;5008179;28;20460;-78
2021/12/20 03:59:17;;;;;;;1.67;1.40;;;6.40;98.20;;;;;;5009098;28;20591;-77
2021/12/20 04:01:44;;;;;;;1.60;1.30;;;6.40;98.20;;;;;;5006735;28;20902;-77
2021/12/20 04:04:12;;;;;;;1.60;1.30;;;6.40;98.20;;;;;;5005856;28;20452;-76
2021/12/20 04:06:39;;;;;;;1.63;1.30;;;6.40;98.20;;;;;;5007608;28;21051;-79
2021/12/20 04:09:06;;;;;;;1.63;1.30;;;6.40;98.20;;;;;;5007234;28;20949;-77
2021/12/20 04:11:33;;;;;;;1.60;1.30;;;6.40;98.20;;;;;;5011182;28;20642;-77
2021/12/20 04:14:01;;;;;;;1.63;1.30;;;6.40;98.20;;;;;;5007968;28;20488;-77
2021/12/20 04:16:29;;;;;;;1.60;1.30;;;6.40;98.20;;;;;;5003733;28;20941;-77
2021/12/20 04:18:55;;;;;;;1.63;1.30;;;6.40;98.20;;;;;;5008224;28;21019;-77
2021/12/20 04:21:24;;;;;;;1.63;1.30;;;6.40;98.20;;;;;;5007777;28;20586;-77
2021/12/20 04:23:51;;;;;;;1.70;1.30;;;6.40;98.20;;;;;;5010185;28;20460;-76
2021/12/20 04:26:18;;;;;;;1.63;1.30;;;6.40;98.20;;;;;;5006360;28;20556;-76
2021/12/20 04:28:45;;;;;;;1.60;1.30;;;6.30;98.20;;;;;;5010244;28;20894;-76
2021/12/20 04:31:12;;;;;;;1.60;1.20;;;6.30;98.20;;;;;;5007471;28;20506;-76
2021/12/20 04:33:39;;;;;;;1.60;1.30;;;6.30;98.20;;;;;;5009044;28;20518;-75
2021/12/20 04:36:07;;;;;;;1.60;1.30;;;6.30;98.20;;;;;;5008581;28;20503;-78
2021/12/20 04:38:35;;;;;;;1.67;1.30;;;6.30;98.20;;;;;;5008133;28;20470;-77
2021/12/20 04:41:02;;;;;;;1.67;1.30;;;6.30;98.20;;;;;;5009050;28;20559;-76
2021/12/20 04:43:29;;;;;;;1.67;1.30;;;6.30;98.20;;;;;;5008412;28;20471;-79
2021/12/20 04:45:56;;;;;;;1.60;1.40;;;6.30;98.20;;;;;;5008133;28;20869;-76
2021/12/20 04:48:23;;;;;;;1.60;1.30;;;6.30;98.20;;;;;;5008902;28;20463;-76
2021/12/20 04:50:50;;;;;;;1.60;1.20;;;6.30;98.20;;;;;;5004524;28;20571;-77
2021/12/20 04:53:17;;;;;;;1.60;1.30;;;6.30;98.20;;;;;;5001863;28;20980;-75
2021/12/20 04:55:45;;;;;;;1.67;1.40;;;6.30;98.20;;;;;;5003682;28;20466;-76
2021/12/20 04:58:13;;;;;;;1.67;1.40;;;6.30;98.20;;;;;;5008088;28;20468;-77
2021/12/20 05:00:43;;;;;;;1.60;1.30;;;6.30;98.20;;;;;;5004886;28;20494;-76
2021/12/20 05:03:10;;;;;;;1.63;1.40;;;6.20;98.20;;;;;;5003457;28;20864;-78
2021/12/20 05:05:37;;;;;;;1.60;1.30;;;6.20;98.20;;;;;;5004448;28;20948;-76
2021/12/20 05:08:06;;;;;;;1.60;1.30;;;6.20;98.20;;;;;;5006119;28;20444;-77
2021/12/20 05:10:34;;;;;;;1.60;1.33;;;6.20;98.20;;;;;;5006899;28;20538;-76
2021/12/20 05:13:05;;;;;;;1.67;1.40;;;6.20;98.20;;;;;;5005519;28;20522;-79
2021/12/20 05:15:33;;;;;;;1.63;1.30;;;6.20;98.20;;;;;;5006231;28;20539;-76
2021/12/20 05:18:01;;;;;;;1.60;1.30;;;6.20;98.20;;;;;;5009065;28;20976;-76
2021/12/20 05:20:28;;;;;;;1.67;1.30;;;6.20;98.20;;;;;;5007141;28;20492;-78
2021/12/20 05:22:56;;;;;;;1.60;1.30;;;6.20;98.20;;;;;;5008046;28;20490;-78
2021/12/20 05:25:23;;;;;;;1.60;1.30;;;6.20;98.20;;;;;;5006780;28;20858;-77
2021/12/20 05:27:51;;;;;;;1.60;1.30;;;6.20;98.20;;;;;;5008141;28;20953;-76
2021/12/20 05:30:19;;;;;;;1.60;1.20;;;6.20;98.20;;;;;;5007849;28;21018;-78
2021/12/20 05:32:47;;;;;;;1.70;1.40;;;6.20;98.20;;;;;;5007713;28;20615;-76
2021/12/20 05:35:16;;;;;;;1.60;1.30;;;6.20;98.20;;;;;;5006864;28;20535;-77
2021/12/20 05:37:43;;;;;;;1.70;1.40;;;6.20;98.20;;;;;;5008462;28;20522;-77
2021/12/20 05:40:12;;;;;;;1.60;1.30;;;6.20;98.20;;;;;;5010650;28;20515;-78
2021/12/20 05:42:39;;;;;;;1.70;1.40;;;6.20;98.20;;;;;;5007292;28;20468;-77
2021/12/20 05:45:08;;;;;;;1.63;1.40;;;6.20;98.20;;;;;;5006646;28;20507;-75
2021/12/20 05:47:37;;;;;;;1.60;1.30;;;6.10;98.20;;;;;;5008940;28;20874;-77
2021/12/20 05:50:04;;;;;;;1.60;1.30;;;6.10;98.20;;;;;;5007832;28;20488;-77
2021/12/20 05:52:31;;;;;;;1.60;1.30;;;6.20;98.20;;;;;;5007306;28;20559;-76
2021/12/20 05:54:58;;;;;;;1.67;1.30;;;6.10;98.20;;;;;;5005511;28;20837;-76
2021/12/20 05:57:25;;;;;;;1.67;1.30;;;6.10;98.20;;;;;;5007513;28;20522;-77
2021/12/20 05:59:52;;;;;;;1.60;1.30;;;6.10;98.20;;;;;;5006217;28;20480;-79
2021/12/20 06:02:19;;;;;;;1.60;1.30;;;6.10;98.20;;;;;;5004620;28;20464;-78
2021/12/20 06:04:50;;;;;;;1.60;1.30;;;6.10;98.20;;;;;;5004036;28;20483;-77
2021/12/20 06:07:18;;;;;;;1.60;1.30;;;6.10;98.20;;;;;;5004505;28;20464;-76
2021/12/20 06:09:45;;;;;;;1.70;1.40;;;6.10;98.20;;;;;;5009184;28;20472;-76
2021/12/20 06:12:12;;;;;;;1.70;1.40;;;6.10;98.20;;;;;;5006128;28;20563;-76
2021/12/20 06:14:39;;;;;;;1.60;1.30;;;6.10;98.20;;;;;;5002137;28;20495;-76
2021/12/20 06:17:06;;;;;;;1.63;1.30;;;6.10;98.20;;;;;;5007213;28;20468;-76
2021/12/20 06:19:34;;;;;;;1.67;1.40;;;6.10;98.20;;;;;;5009326;28;20818;-76
2021/12/20 06:22:04;;;;;;;1.60;1.30;;;6.00;98.20;;;;;;5005265;28;20464;-76
2021/12/20 06:24:31;;;;;;;1.60;1.30;;;6.00;98.20;;;;;;5005691;28;20479;-76
2021/12/20 06:26:57;;;;;;;1.60;1.30;;;6.00;98.20;;;;;;5007627;28;20460;-76
2021/12/20 06:29:24;;;;;;;1.60;1.30;;;6.00;98.20;;;;;;5010609;28;20464;-76
2021/12/20 06:31:51;;;;;;;1.60;1.30;;;6.00;98.20;;;;;;5009559;28;20467;-76
2021/12/20 06:34:18;;;;;;;1.67;1.37;;;6.10;98.20;;;;;;5007360;28;20558;-76
2021/12/20 06:36:45;;;;;;;1.60;1.30;;;6.00;98.20;;;;;;5007925;28;20470;-77
2021/12/20 06:39:13;;;;;;;1.67;1.40;;;6.00;98.20;;;;;;5010786;28;20489;-74
2021/12/20 06:41:40;;;;;;;1.63;1.30;;;6.00;98.20;;;;;;5000235;28;20495;-74
2021/12/20 06:44:07;;;;;;;1.60;1.30;;;6.00;98.20;;;;;;5005682;28;20940;-76
2021/12/20 06:46:37;;;;;;;1.60;1.30;;;6.00;98.20;;;;;;5009048;28;20471;-74
2021/12/20 06:49:08;;;;;;;1.60;1.30;;;6.00;98.20;;;;;;5004284;28;20602;-74
2021/12/20 06:51:38;;;;;;;1.60;1.30;;;6.00;98.20;;;;;;4996634;28;20549;-74
2021/12/20 06:54:05;;;;;;;1.60;1.40;;;6.00;98.20;;;;;;5003803;28;20919;-73
2021/12/20 06:56:33;;;;;;;1.60;1.30;;;6.00;98.20;;;;;;5004276;28;20520;-74
2021/12/20 06:59:00;;;;;;;1.67;1.40;;;6.00;98.20;;;;;;5003086;28;20897;-72
2021/12/20 07:01:27;;;;;;;1.70;1.40;;;6.00;98.20;;;;;;4999039;28;20492;-75
2021/12/20 07:03:54;;;;;;;1.70;1.40;;;6.00;98.20;;;;;;5003568;28;20865;-74
2021/12/20 07:06:21;;;;;;;1.60;1.40;;;6.00;98.20;;;;;;5001616;28;20482;-73
2021/12/20 07:08:48;;;;;;;1.60;1.30;;;6.00;98.20;;;;;;4998605;28;20472;-74
2021/12/20 07:11:15;;;;;;;1.60;1.30;;;6.00;98.20;;;;;;5001966;28;20488;-74
2021/12/20 07:13:44;;;;;;;1.67;1.40;;;6.00;98.20;;;;;;5000836;28;20483;-74
2021/12/20 07:16:12;;;;;;;1.67;1.30;;;6.00;98.20;;;;;;5004199;28;20488;-73
2021/12/20 07:18:41;;;;;;;1.63;1.30;;;6.00;98.20;;;;;;5002860;28;20844;-74
2021/12/20 07:21:09;;;;;;;1.60;1.30;;;6.00;98.20;;;;;;5004739;28;20488;-73
2021/12/20 07:23:36;;;;;;;1.70;1.40;;;6.00;98.20;;;;;;5008246;28;20484;-74
2021/12/20 07:26:04;;;;;;;1.63;1.30;;;5.90;98.20;;;;;;5007984;28;21043;-74
2021/12/20 07:28:31;;;;;;;1.63;1.30;;;5.90;98.20;;;;;;5005855;28;20520;-74
2021/12/20 07:31:00;;;;;;;1.67;1.40;;;5.90;98.20;;;;;;5004799;28;21243;-72
2021/12/20 07:33:27;;;;;;;1.70;1.40;;;5.80;98.20;;;;;;5005355;28;20472;-74
2021/12/20 07:35:54;;;;;;;1.60;1.30;;;5.80;98.20;;;;;;5005586;28;20840;-74
2021/12/20 07:38:22;;;;;;;1.63;1.30;;;5.70;98.20;;;;;;5005563;28;20522;-74
2021/12/20 07:40:51;;;;;;;1.63;1.30;;;5.70;98.20;;;;;;5006489;28;20892;-74
2021/12/20 07:43:20;;;;;;;1.67;1.40;;;5.60;98.20;;;;;;5005620;28;21003;-74
2021/12/20 07:45:48;;;;;;;1.60;1.40;;;5.60;98.20;;;;;;5000766;28;20481;-71
2021/12/20 07:48:18;;;;;;;1.63;1.37;;;5.50;98.20;;;;;;5000744;28;20534;-73
2021/12/20 07:50:47;;;;;;;1.70;1.40;;;5.50;98.20;;;;;;4999448;28;20496;-75
2021/12/20 07:53:15;;;;;;;1.63;1.30;;;5.40;98.20;;;;;;5002899;28;20464;-73
2021/12/20 07:55:43;;;;;;;1.70;1.50;;;5.30;98.20;;;;;;4999357;28;20687;-73
2021/12/20 07:58:10;;;;;;;1.67;1.37;;;5.30;98.20;;;;;;5003010;28;20474;-72
2021/12/20 08:00:39;;;;;;;1.70;1.40;;;5.30;98.20;;;;;;5003887;28;20492;-73
2021/12/20 08:03:07;;;;;;;1.70;1.40;;;5.20;98.20;;;;;;5003705;28;20467;-73
2021/12/20 08:05:36;;;;;;;1.70;1.50;;;5.20;98.20;;;;;;5004256;28;21286;-75
2021/12/20 08:08:04;;;;;;;1.70;1.40;;;5.20;98.20;;;;;;5004084;28;21043;-74
2021/12/20 08:10:32;;;;;;;1.67;1.40;;;5.20;98.20;;;;;;5007847;28;20488;-74
2021/12/20 08:12:59;;;;;;;1.70;1.50;;;5.20;98.20;;;;;;5003053;28;20468;-74
2021/12/20 08:15:27;;;;;;;1.70;1.40;;;5.10;98.20;;;;;;5001999;28;20601;-73
2021/12/20 08:17:56;;;;;;;1.70;1.40;;;5.10;98.20;;;;;;5003163;28;20918;-74
2021/12/20 08:20:24;;;;;;;1.70;1.50;;;5.10;98.20;;;;;;5006106;28;20995;-74
2021/12/20 08:22:53;;;;;;;1.70;1.40;;;5.10;98.20;;;;;;5003235;28;20460;-74
2021/12/20 08:25:20;;;;;;;1.60;1.40;;;5.10;98.20;;;;;;5001647;28;20806;-74
2021/12/20 08:27:49;;;;;;;1.63;1.30;;;5.10;98.20;;;;;;5005128;28;20460;-74
2021/12/20 08:30:17;;;;;;;1.70;1.40;;;5.10;98.20;;;;;;5003641;28;20487;-73
2021/12/20 08:32:45;;;;;;;1.60;1.30;;;5.10;98.20;;;;;;5003254;28;20459;-74
2021/12/20 08:35:14;;;;;;;1.67;1.40;;;5.10;98.20;;;;;;5003226;28;20485;-74
2021/12/20 08:37:42;;;;;;;1.67;1.40;;;5.10;98.20;;;;;;5007496;28;20467;-73
2021/12/20 08:40:14;;;;;;;1.70;1.40;;;5.10;98.20;;;;;;5004227;28;20480;-73
2021/12/20 08:42:42;;;;;;;1.63;1.40;;;5.10;98.20;;;;;;4999972;28;20502;-76
2021/12/20 08:45:11;;;;;;;1.67;1.40;;;5.10;98.20;;;;;;5001692;28;20468;-75
2021/12/20 08:47:39;;;;;;;1.67;1.40;;;5.10;98.20;;;;;;5004338;28;20468;-76
2021/12/20 08:50:24;;;;;;;1.70;1.30;;;5.20;98.20;;;;;;5004938;28;20906;-76
2021/12/20 08:52:52;;;;;;;1.70;1.40;;;5.30;98.20;;;;;;5004309;28;20471;-75
2021/12/20 08:55:21;;;;;;;1.63;1.30;;;5.30;98.20;;;;;;5004255;28;20925;-75
2021/12/20 08:57:49;;;;;;;1.63;1.40;;;5.40;98.20;;;;;;5002711;28;20471;-75
2021/12/20 09:00:23;;;;;;;1.67;1.40;;;5.40;98.20;;;;;;5005657;28;20550;-74
2021/12/20 09:02:51;;;;;;;1.63;1.30;;;5.50;98.20;;;;;;5004232;28;20546;-74
2021/12/20 09:05:20;;;;;;;1.67;1.40;;;5.50;98.20;;;;;;5004926;28;20468;-76
2021/12/20 09:07:48;;;;;;;1.63;1.40;;;5.50;98.20;;;;;;5004594;28;20955;-77
2021/12/20 09:10:17;;;;;;;1.63;1.40;;;5.50;98.20;;;;;;5006386;28;20507;-75
2021/12/20 09:12:47;;;;;;;1.63;1.40;;;5.50;98.20;;;;;;5003749;28;20511;-76
2021/12/20 09:15:17;;;;;;;1.67;1.40;;;5.50;98.20;;;;;;5004379;28;21001;-74
2021/12/20 09:17:45;;;;;;;1.60;1.40;;;5.40;98.20;;;;;;5007310;28;20455;-76
2021/12/20 09:20:13;;;;;;;1.60;1.40;;;5.40;98.20;;;;;;5005114;28;20491;-76
2021/12/20 09:22:50;;;;;;;1.70;1.50;;;5.40;98.20;;;;;;5004164;28;20468;-77
2021/12/20 09:25:17;;;;;;;1.67;1.40;;;5.40;98.20;;;;;;5004645;28;20558;-77
2021/12/20 09:27:46;;;;;;;1.67;1.47;;;5.40;98.20;;;;;;5004700;28;20893;-75
2021/12/20 09:30:14;;;;;;;1.70;1.50;;;5.40;98.20;;;;;;5002735;28;20484;-75
2021/12/20 09:32:41;;;;;;;1.63;1.40;;;5.40;98.20;;;;;;5000716;28;20479;-75
2021/12/20 09:35:09;;;;;;;1.67;1.30;;;5.30;98.20;;;;;;5000462;28;20860;-76
2021/12/20 09:37:38;;;;;;;1.60;1.33;;;5.40;98.20;;;;;;5004671;28;20471;-75
2021/12/20 09:40:06;;;;;;;1.63;1.30;;;5.40;98.20;;;;;;5007295;28;20489;-76
2021/12/20 09:42:35;;;;;;;1.70;1.40;;;5.40;98.20;;;;;;5003901;28;21050;-76
2021/12/20 09:45:05;;;;;;;1.67;1.40;;;5.40;98.20;;;;;;5007681;28;20526;-75
2021/12/20 09:47:34;;;;;;;1.60;1.30;;;5.40;98.20;;;;;;5006609;28;20583;-76
2021/12/20 09:50:04;;;;;;;1.67;1.43;;;5.40;98.20;;;;;;5007868;28;20495;-73
2021/12/20 09:52:31;;;;;;;1.70;1.40;;;5.50;98.20;;;;;;5006456;28;20464;-74
2021/12/20 09:54:59;;;;;;;1.63;1.40;;;5.50;98.20;;;;;;5007804;28;20541;-76
2021/12/20 09:57:26;;;;;;;1.70;1.30;;;5.60;98.20;;;;;;5008471;28;21042;-75
2021/12/20 09:59:54;;;;;;;1.60;1.30;;;5.60;98.20;;;;;;5006308;28;20587;-74
2021/12/20 10:02:24;;;;;;;1.63;1.30;;;5.60;98.20;;;;;;5003330;28;20479;-73
2021/12/20 10:04:51;;;;;;;1.60;1.40;;;5.60;98.20;;;;;;5006028;28;21139;-74
2021/12/20 10:07:23;;;;;;;1.60;1.30;;;5.60;98.20;;;;;;5005333;28;20476;-74
2021/12/20 10:09:50;;;;;;;1.63;1.40;;;5.60;98.20;;;;;;5003034;28;20492;-73
2021/12/20 10:12:23;;;;;;;1.63;1.40;;;5.60;98.20;;;;;;5002653;28;20471;-72
2021/12/20 10:14:56;;;;;;;1.63;1.40;;;5.70;98.20;;;;;;5006294;28;20487;-74
2021/12/20 10:17:26;;;;;;;1.60;1.40;;;5.70;98.20;;;;;;5006897;28;20559;-73
2021/12/20 10:19:53;;;;;;;1.60;1.40;;;5.70;98.20;;;;;;5003614;28;20499;-73
2021/12/20 10:22:28;;;;;;;1.67;1.40;;;5.70;98.20;;;;;;5003220;28;20467;-73
2021/12/20 10:24:57;;;;;;;1.63;1.40;;;5.80;98.20;;;;;;5005577;28;20495;-73
2021/12/20 10:27:36;;;;;;;1.70;1.50;;;5.80;98.20;;;;;;5006873;28;22155;-73
2021/12/20 10:30:23;;;;;;;1.70;1.50;;;5.80;98.20;;;;;;5003318;28;20479;-73
2021/12/20 10:32:52;;;;;;;1.60;1.40;;;5.80;98.20;;;;;;5006712;28;20971;-76
2021/12/20 10:35:37;;;;;;;1.60;1.33;;;5.80;98.20;;;;;;5007414;28;20997;-74
2021/12/20 10:38:08;;;;;;;1.60;1.30;;;5.80;98.20;;;;;;5005786;28;20464;-73
2021/12/20 10:40:46;;;;;;;1.63;1.37;;;5.80;98.20;;;;;;5002689;28;20487;-76
2021/12/20 10:43:15;;;;;;;1.63;1.33;;;5.80;98.20;;;;;;5004026;28;20470;-74
2021/12/20 10:45:43;;;;;;;1.63;1.30;;;5.80;98.20;;;;;;5005333;28;20452;-73
2021/12/20 10:48:13;;;;;;;1.60;1.30;;;5.90;98.20;;;;;;5004075;28;20475;-73
2021/12/20 10:50:44;;;;;;;1.67;1.40;;;5.90;98.20;;;;;;5000596;28;20488;-76
2021/12/20 10:53:17;;;;;;;1.60;1.40;;;5.90;98.20;;;;;;5003240;28;20522;-73
2021/12/20 10:55:46;;;;;;;1.60;1.40;;;5.90;98.20;;;;;;5001408;28;20480;-76
2021/12/20 10:58:33;;;;;;;1.70;1.40;;;5.90;98.20;;;;;;5007968;28;20460;-73
2021/12/20 11:01:19;;;;;;;1.60;1.30;;;5.90;98.20;;;;;;5003671;28;20484;-75
2021/12/20 11:03:59;;;;;;;1.67;1.40;;;6.00;98.20;;;;;;5004904;28;20647;-74
2021/12/20 11:06:39;;;;;;;1.67;1.40;;;6.00;98.20;;;;;;5002966;28;20519;-75
2021/12/20 11:09:18;;;;;;;1.60;1.30;;;6.00;98.20;;;;;;5004871;28;20475;-76
2021/12/20 11:11:48;;;;;;;1.60;1.40;;;6.00;98.20;;;;;;5006024;28;20964;-74
2021/12/20 11:14:18;;;;;;;1.60;1.30;;;6.10;98.20;;;;;;5006080;28;20460;-75
2021/12/20 11:16:46;;;;;;;1.67;1.40;;;6.10;98.20;;;;;;5003988;28;20494;-73
2021/12/20 11:19:38;;;;;;;1.63;1.40;;;6.10;98.20;;;;;;5003771;28;20499;-73
2021/12/20 11:22:08;;;;;;;1.67;1.40;;;6.20;98.20;;;;;;5003693;28;20464;-74
2021/12/20 11:24:38;;;;;;;1.60;1.40;;;6.20;98.20;;;;;;5004967;28;20498;-74
2021/12/20 11:27:08;;;;;;;1.60;1.30;;;6.20;98.20;;;;;;5003477;28;20495;-75
2021/12/20 11:29:50;;;;;;;1.60;1.30;;;6.20;98.20;;;;;;5007265;28;20530;-75
2021/12/20 11:32:19;;;;;;;1.60;1.30;;;6.20;98.20;;;;;;5004193;28;20468;-75
2021/12/20 11:34:53;;;;;;;1.60;1.33;;;6.20;98.20;;;;;;5002788;28;20467;-75
2021/12/20 11:37:23;;;;;;;1.70;1.40;;;6.30;98.20;;;;;;5000667;28;20491;-75
2021/12/20 11:39:52;;;;;;;1.70;1.40;;;6.30;98.20;;;;;;5004326;28;20991;-75
2021/12/20 11:42:20;;;;;;;1.63;1.40;;;6.30;98.20;;;;;;5004206;28;20475;-74
2021/12/20 11:44:50;;;;;;;1.60;1.30;;;6.30;98.20;;;;;;5006485;28;20460;-75
2021/12/20 11:47:28;;;;;;;2.00;1.80;;;6.30;98.20;;;;;;5005316;28;20461;-75
2021/12/20 11:49:59;;;;;;;1.67;1.40;;;6.30;98.20;;;;;;5002667;28;21069;-74
2021/12/20 11:52:32;;;;;;;1.63;1.30;;;6.40;98.20;;;;;;5002822;28;20571;-74
2021/12/20 11:55:00;;;;;;;1.63;1.30;;;6.40;98.20;;;;;;5003129;28;20492;-74
2021/12/20 11:57:44;;;;;;;1.60;1.30;;;6.40;98.20;;;;;;5004354;28;20510;-74
2021/12/20 12:00:31;;;;;;;1.63;1.40;;;6.40;98.20;;;;;;5001136;28;20571;-74
2021/12/20 12:03:02;;;;;;;1.60;1.30;;;6.40;98.20;;;;;;5002174;28;20472;-74
2021/12/20 12:05:43;;;;;;;1.60;1.30;;;6.40;97.00;;;;;;5004009;28;20522;-73
2021/12/20 12:08:32;;;;;;;1.63;1.33;;;6.40;95.60;;;;;;5004010;28;20862;-76
2021/12/20 12:11:21;;;;;;;1.60;1.30;;;6.40;91.80;;;;;;5001474;28;20495;-75
2021/12/20 12:14:32;;;;;;;1.70;1.37;;;6.40;92.00;;;;;;5003577;28;20461;-75
2021/12/20 12:17:02;;;;;;;1.67;1.40;;;6.40;91.60;;;;;;5004899;28;20488;-74
2021/12/20 12:19:55;;;;;;;1.60;1.30;;;6.40;89.80;;;;;;5003343;28;20545;-74
2021/12/20 12:22:41;;;;;;;1.60;1.30;;;6.40;92.00;;;;;;4994280;28;20890;-74
2021/12/20 12:25:12;;;;;;;1.60;1.30;;;6.40;91.30;;;;;;5001093;28;20468;-75
2021/12/20 12:27:43;;;;;;;1.60;1.33;;;6.40;90.60;;;;;;5000990;28;20508;-74
2021/12/20 12:30:39;;;;;;;1.77;1.67;;;6.40;90.60;;;;;;5000609;28;20514;-76
2021/12/20 12:33:27;;;;;;;1.60;1.40;;;6.50;92.90;;;;;;5002656;28;20484;-76
2021/12/20 12:36:03;;;;;;;1.60;1.40;;;6.50;89.30;;;;;;4996749;28;20575;-74
2021/12/20 12:38:36;;;;;;;1.60;1.40;;;6.50;90.00;;;;;;5003901;28;20533;-74
2021/12/20 12:41:19;;;;;;;1.93;1.73;;;6.60;89.90;;;;;;5004348;28;20490;-74
2021/12/20 12:44:06;;;;;;;2.43;2.23;;;6.60;89.30;;;;;;5002375;28;20976;-75
2021/12/20 12:47:03;;;;;;;1.70;1.60;;;6.70;87.70;;;;;;5002778;28;20467;-74
2021/12/20 12:49:46;;;;;;;1.60;1.30;;;6.70;87.60;;;;;;5002890;28;20816;-74
2021/12/20 12:52:36;;;;;;;1.60;1.30;;;6.90;87.50;;;;;;5001187;28;20471;-74
2021/12/20 12:55:09;;;;;;;1.63;1.30;;;7.00;88.10;;;;;;5001352;28;20551;-76
2021/12/20 12:57:40;;;;;;;1.60;1.40;;;7.20;88.90;;;;;;5000560;28;20475;-74
2021/12/20 13:00:24;;;;;;;1.60;1.30;;;7.30;87.80;;;;;;5003259;28;20488;-74
2021/12/20 13:02:54;;;;;;;1.63;1.30;;;7.40;88.60;;;;;;5001467;28;20563;-75
2021/12/20 13:05:23;;;;;;;1.63;1.40;;;7.50;87.10;;;;;;5001114;28;20460;-74
2021/12/20 13:07:53;;;;;;;1.67;1.40;;;7.60;85.90;;;;;;5002057;28;20549;-74
2021/12/20 13:10:29;;;;;;;1.60;1.30;;;7.70;86.70;;;;;;5002801;28;20933;-75
2021/12/20 13:13:03;;;;;;;2.10;1.90;;;7.70;86.80;;;;;;5001950;28;20456;-74
2021/12/20 13:15:35;;;;;;;1.60;1.30;;;7.70;86.50;;;;;;5004012;28;20491;-75
2021/12/20 13:18:10;;;;;;;1.60;1.30;;;7.80;87.60;;;;;;5007120;28;21006;-74
2021/12/20 13:20:46;;;;;;;1.60;1.30;;;7.90;85.90;;;;;;5001103;28;20538;-75